Latest Weather Observations for Sydney Airport

IDN60801

Issued at 7:32 pm EST Tuesday 26 May 2015 (issued every 30 minutes, with the page automatically refreshed every 10 minutes)

About weather observations | Map of weather stations | Latest weather observations for NSW | Other Formats
Station Details ID: 066037 Name: SYDNEY AIRPORT AMO Lat: -33.95 Lon: 151.17 Height: 6.0 m
Data from the previous 72 hours. | See also: Recent months at Sydney Airport
Date/Time
EST
Temp
°C
App
Temp
°C
Dew
Point
Rel
Hum
%
Delta-T
°C
Wind Press
QNH
hPa
Press
MSL
hPa
Rain
since 9 am
mm
Dir
 
Spd
km/h
Gust
km/h
Spd
kts
Gust
kts
26/07:00pm 15.5 12.6 9.7 68 3.0 NW 15 26 8 14 1026.9 1026.9 0.0
26/06:30pm 15.9 13.9 10.2 69 3.0 WNW 11 11 6 6 1026.5 1026.5 0.0
26/06:00pm 15.8 14.4 9.4 65 3.3 W 7 9 4 5 1026.1 1026.1 0.0
26/05:30pm 15.4 14.1 9.8 69 2.9 WSW 7 11 4 6 1026.1 1026.1 0.0
26/05:00pm 15.6 14.7 11.3 75 2.3 SSW 7 9 4 5 1026.2 1026.2 0.0
26/04:30pm 16.0 14.6 12.3 79 2.0 SSW 11 13 6 7 1026.1 1026.1 0.0
26/04:00pm 16.6 15.6 12.2 75 2.4 S 9 13 5 7 1026.1 1026.1 0.0
26/03:30pm 16.8 15.0 10.8 67 3.2 S 11 13 6 7 1026.2 1026.2 0.0
26/03:00pm 17.0 15.5 10.6 66 3.4 SSW 9 11 5 6 1026.6 1026.6 0.0
26/02:30pm 17.2 16.1 10.6 65 3.5 SW 7 13 4 7 1026.6 1026.6 0.0
26/02:00pm 17.0 16.0 11.0 68 3.2 SW 7 9 4 5 1026.8 1026.8 0.0
26/01:30pm 17.4 16.2 10.2 62 3.8 WSW 7 9 4 5 1027.0 1027.0 0.0
26/01:00pm 16.7 15.2 9.3 61 3.8 SW 7 15 4 8 1027.4 1027.4 0.0
26/12:30pm 17.0 15.4 8.8 58 4.2 WSW 7 9 4 5 1027.7 1027.7 0.0
26/12:00pm 17.6 15.5 8.1 53 4.8 W 9 13 5 7 1028.2 1028.2 0.0
26/11:30am 17.7 14.2 7.0 49 5.3 WNW 15 19 8 10 1028.8 1028.8 0.0
26/11:00am 16.8 12.3 6.3 50 5.1 NW 19 28 10 15 1029.3 1029.3 0.0
26/10:30am 15.9 12.5 6.1 52 4.7 NW 13 19 7 10 1029.4 1029.4 0.0
26/10:00am 15.0 11.6 6.0 55 4.3 NW 13 17 7 9 1029.6 1029.6 0.0
26/09:00am 11.8 7.8 4.7 62 3.2 NW 15 20 8 11 1029.8 1029.8 0.0
26/08:30am 11.3 6.5 4.6 63 3.0 NW 19 22 10 12 1029.8 1029.8 0.0
26/08:00am 11.1 7.4 4.4 63 3.0 NW 13 19 7 10 1029.7 1029.7 0.0
26/07:30am 10.4 6.3 4.5 67 2.6 WNW 15 17 8 9 1029.3 1029.3 0.0
26/07:00am 9.7 5.6 4.5 70 2.3 NW 15 17 8 9 1029.2 1029.2 0.0
26/06:30am 9.0 4.9 4.4 73 2.0 NW 15 20 8 11 1029.0 1029.0 0.0
26/06:00am 9.0 4.9 4.4 73 2.0 NNW 15 19 8 10 1028.7 1028.7 0.0
26/05:30am 8.9 4.1 4.8 75 1.8 NNW 19 20 10 11 1028.7 1028.7 0.0
26/05:00am 8.9 4.9 4.8 75 1.8 NNW 15 17 8 9 1028.4 1028.4 0.0
26/04:30am 9.4 5.7 4.6 72 2.1 NNW 13 15 7 8 1028.3 1028.3 0.0
26/04:00am 9.0 5.8 4.9 75 1.8 NNW 11 13 6 7 1028.7 1028.7 0.0
26/03:30am 9.0 5.8 5.2 77 1.7 NNW 11 11 6 6 1028.7 1028.7 0.0
26/03:00am 8.8 5.7 5.4 79 1.5 NNW 11 13 6 7 1028.9 1028.9 0.0
26/02:30am 9.2 5.8 5.7 79 1.6 NNW 13 15 7 8 1028.9 1028.9 0.0
26/02:00am 9.1 5.4 6.5 84 1.2 NNW 15 15 8 8 1029.0 1029.0 0.0
26/01:30am 9.8 6.6 7.0 83 1.3 NW 13 15 7 8 1029.0 1029.0 0.0
26/01:00am 10.6 7.9 7.4 80 1.5 NNW 11 13 6 7 1029.1 1029.1 0.0
26/12:30am 10.9 7.8 7.3 78 1.7 NNW 13 15 7 8 1029.1 1029.1 0.0
26/12:00am 11.3 9.1 7.8 79 1.7 NNW 9 13 5 7 1029.3 1029.3 0.0
 
Date/Time
EST
Temp
°C
App
Temp
°C
Dew
Point
Rel
Hum
%
Delta-T
°C
Wind Press
QNH
hPa
Press
MSL
hPa
Rain
since 9 am
mm
Dir
 
Spd
km/h
Gust
km/h
Spd
kts
Gust
kts
25/11:30pm 11.2 9.1 8.1 81 1.5 NNW 9 9 5 5 1029.4 1029.4 0.0
25/11:00pm 11.7 9.2 8.2 79 1.7 NNW 11 11 6 6 1029.6 1029.6 0.0
25/10:30pm 12.8 10.8 8.6 75 2.1 N 9 11 5 6 1029.5 1029.5 0.0
25/10:00pm 12.9 10.9 8.7 75 2.1 NNW 9 11 5 6 1029.5 1029.5 0.0
25/09:30pm 13.7 11.3 8.7 72 2.5 NNW 11 13 6 7 1029.5 1029.5 0.0
25/09:00pm 13.7 11.4 9.1 74 2.3 NW 11 13 6 7 1029.6 1029.6 0.0
25/08:30pm 14.3 12.1 9.2 71 2.6 WNW 11 13 6 7 1029.6 1029.6 0.0
25/08:00pm 14.4 12.2 9.3 71 2.6 WNW 11 15 6 8 1029.4 1029.4 0.0
25/07:30pm 14.7 12.2 9.6 71 2.6 WNW 13 17 7 9 1029.2 1029.2 0.0
25/07:00pm 15.4 13.2 9.3 67 3.1 WNW 11 17 6 9 1028.9 1028.9 0.0
25/06:30pm 15.9 13.6 9.0 63 3.5 W 11 17 6 9 1028.7 1028.7 0.0
25/06:00pm 16.1 14.6 9.3 64 3.5 W 7 9 4 5 1028.2 1028.2 0.0
25/05:30pm 17.2 15.6 8.6 57 4.4 NW 7 9 4 5 1028.2 1028.2 0.0
25/05:00pm 17.7 15.3 8.5 55 4.7 NW 11 13 6 7 1028.5 1028.5 0.0
25/04:30pm 18.0 15.8 7.9 51 5.1 NNW 9 11 5 6 1028.3 1028.3 0.0
25/04:00pm 18.9 16.2 7.4 47 5.8 N 11 13 6 7 1028.3 1028.3 0.0
25/03:30pm 19.0 16.8 7.8 48 5.7 NNW 9 11 5 6 1028.5 1028.5 0.0
25/03:00pm 18.6 16.9 7.5 48 5.6 NNW 6 9 3 5 1028.4 1028.4 0.0
25/02:30pm 18.6 16.4 8.0 50 5.4 WNW 9 11 5 6 1028.5 1028.5 0.0
25/02:00pm 18.8 16.5 7.5 47 5.7 W 9 11 5 6 1028.8 1028.8 0.0
25/01:30pm 18.9 16.6 7.6 48 5.8 WNW 9 13 5 7 1028.8 1028.8 0.0
25/01:00pm 17.5 14.8 7.5 52 5.0 NW 11 13 6 7 1029.1 1029.1 0.0
25/12:30pm 18.2 15.5 7.4 49 5.5 NW 11 17 6 9 1029.4 1029.4 0.0
25/12:00pm 17.5 14.3 7.0 50 5.2 NW 13 17 7 9 1029.9 1029.9 0.0
25/11:30am 17.3 14.5 7.0 50 5.1 NW 11 13 6 7 1030.6 1030.6 0.0
25/11:00am 16.6 13.3 6.5 51 4.9 NW 13 17 7 9 1031.4 1031.4 0.0
25/10:30am 16.6 13.4 6.8 52 4.8 NW 13 19 7 10 1031.6 1031.6 0.0
25/10:00am 16.2 12.6 6.8 53 4.6 NW 15 24 8 13 1032.0 1032.0 0.0
25/09:30am 14.9 11.3 6.6 57 4.0 NW 15 19 8 10 1032.2 1032.2 0.0
25/09:00am 14.2 10.5 6.4 59 3.7 NNW 15 17 8 9 1032.0 1032.0 0.0
25/08:30am 13.0 10.1 6.7 65 3.0 N 11 13 6 7 1031.9 1031.9 0.0
25/08:00am 11.5 8.2 6.6 72 2.3 NNW 13 17 7 9 1032.0 1032.0 0.0
25/07:30am 11.1 8.2 6.4 73 2.2 NNW 11 15 6 8 1031.7 1031.7 0.0
25/07:00am 10.9 7.3 6.6 75 2.0 NNW 15 19 8 10 1031.8 1031.8 0.0
25/06:30am 10.4 6.7 6.5 77 1.8 NW 15 22 8 12 1031.6 1031.6 0.0
25/06:00am 10.3 6.7 6.6 78 1.7 NW 15 19 8 10 1031.5 1031.5 0.0
25/05:30am 10.1 6.4 6.4 78 1.7 NW 15 17 8 9 1031.3 1031.3 0.0
25/05:00am 9.7 6.4 6.4 80 1.5 NNW 13 17 7 9 1031.0 1031.0 0.0
25/04:30am 9.6 6.4 6.8 83 1.3 NNW 13 15 7 8 1031.2 1031.2 0.0
25/04:00am 9.6 5.6 6.6 81 1.4 NNW 17 17 9 9 1031.3 1031.3 0.0
25/03:30am 9.5 7.0 6.5 81 1.4 NNW 9 11 5 6 1031.2 1031.2 0.0
25/03:00am 9.6 6.3 6.6 81 1.4 NNW 13 15 7 8 1031.6 1031.6 0.0
25/02:30am 9.5 5.8 6.5 81 1.4 NW 15 17 8 9 1031.7 1031.7 0.0
25/02:00am 9.5 6.6 6.7 83 1.3 NNW 11 13 6 7 1031.6 1031.6 0.0
25/01:30am 10.1 6.5 6.9 80 1.5 NW 15 15 8 8 1031.7 1031.7 0.0
25/01:00am 10.5 7.7 7.1 79 1.6 N 11 13 6 7 1031.6 1031.6 0.0
25/12:30am 10.9 7.8 7.3 78 1.7 N 13 15 7 8 1031.9 1031.9 0.0
25/12:00am 12.3 10.0 7.3 71 2.4 NNW 9 11 5 6 1032.2 1032.2 0.0
 
Date/Time
EST
Temp
°C
App
Temp
°C
Dew
Point
Rel
Hum
%
Delta-T
°C
Wind Press
QNH
hPa
Press
MSL
hPa
Rain
since 9 am
mm
Dir
 
Spd
km/h
Gust
km/h
Spd
kts
Gust
kts
24/11:30pm 11.9 8.8 7.3 73 2.2 W 13 17 7 9 1032.3 1032.3 0.0
24/11:00pm 12.3 9.4 8.2 76 2.0 WNW 13 17 7 9 1032.3 1032.3 0.0
24/10:30pm 12.7 10.2 8.4 75 2.1 NW 11 19 6 10 1032.1 1032.1 0.0
24/10:00pm 13.5 11.9 8.2 70 2.6 N 6 9 3 5 1032.3 1032.3 0.0
24/09:30pm 13.3 11.1 8.0 70 2.6 NNW 9 11 5 6 1032.3 1032.3 0.0
24/09:00pm 13.3 11.6 8.4 72 2.4 W 7 9 4 5 1032.2 1032.2 0.0
24/08:30pm 13.0 11.0 8.8 75 2.1 WSW 9 11 5 6 1032.1 1032.1 0.0
24/08:00pm 14.6 12.8 7.9 64 3.3 WSW 7 11 4 6 1032.0 1032.0 0.0
24/07:30pm 15.7 14.9 6.6 54 4.4 CALM 0 0 0 0 1031.7 1031.7 0.0
24/07:00pm 16.5 13.9 5.9 49 5.1 ENE 9 11 5 6 1031.7 1031.7 0.0
24/06:30pm 15.6 14.8 6.5 54 4.4 CALM 0 0 0 0 1031.6 1031.6 0.0
24/06:00pm 15.8 14.9 6.0 52 4.7 CALM 0 0 0 0 1031.6 1031.6 0.0
24/05:30pm 16.1 14.2 6.9 54 4.5 SE 6 7 3 4 1031.4 1031.4 0.0
24/05:00pm 16.1 13.9 6.1 51 4.8 ESE 7 7 4 4 1031.0 1031.0 0.0
24/04:30pm 16.8 14.5 5.5 47 5.4 SSE 7 9 4 5 1030.9 1030.9 0.0
24/04:00pm 17.3 14.3 6.2 48 5.4 SSE 11 13 6 7 1030.7 1030.7 0.0
24/03:30pm 17.4 14.6 7.1 50 5.1 S 11 15 6 8 1030.6 1030.6 0.0
24/03:00pm 17.7 15.1 7.8 52 5.0 SSE 11 15 6 8 1030.7 1030.7 0.0
24/02:30pm 17.7 15.0 7.3 50 5.2 S 11 13 6 7 1030.7 1030.7 0.0
24/02:00pm 17.8 14.5 6.6 48 5.5 SSE 13 15 7 8 1030.5 1030.5 0.0
24/01:30pm 17.4 14.1 8.1 54 4.7 SSE 15 17 8 9 1030.5 1030.5 0.0
24/01:00pm 17.5 14.2 8.2 54 4.7 SSE 15 19 8 10 1030.7 1030.7 0.0
24/12:30pm 17.7 14.4 8.0 53 4.9 S 15 17 8 9 1030.9 1030.9 0.0
24/12:00pm 17.6 14.4 8.4 55 4.7 SSW 15 19 8 10 1031.3 1031.3 0.0
24/11:30am 16.8 14.5 7.3 53 4.7 WSW 9 15 5 8 1031.8 1031.8 0.0
24/11:00am 18.6 15.7 6.4 45 6.0 WNW 11 17 6 9 1032.0 1032.0 0.0
24/10:30am 16.4 12.6 6.0 50 5.0 W 15 22 8 12 1032.3 1032.3 0.0
24/10:00am 15.2 11.8 7.5 60 3.8 W 15 19 8 10 1032.6 1032.6 0.0
24/09:30am 13.0 10.5 6.7 65 3.0 NW 9 11 5 6 1032.4 1032.4 0.0
24/09:00am 11.2 7.4 6.0 70 2.4 NW 15 20 8 11 1032.3 1032.3 0.0
24/08:30am 9.6 6.1 5.6 76 1.8 WNW 13 19 7 10 1032.1 1032.1 0.0
24/08:00am 9.6 5.8 5.6 76 1.8 NW 15 20 8 11 1031.6 1031.6 0.0
24/07:30am 9.4 5.6 5.6 77 1.7 NW 15 22 8 12 1031.5 1031.5 0.0
24/07:00am 8.8 4.9 5.4 79 1.5 NNW 15 17 8 9 1031.0 1031.0 0.0
24/06:30am 8.4 4.5 5.5 82 1.3 NW 15 19 8 10 1031.0 1031.0 0.0
24/06:00am 8.3 4.1 5.6 83 1.2 NW 17 19 9 10 1030.7 1030.7 0.0
24/05:30am 8.7 5.2 5.6 81 1.4 WNW 13 17 7 9 1030.5 1030.5 0.0
24/05:00am 8.3 4.5 5.9 85 1.1 NW 15 17 8 9 1030.2 1030.2 0.0
24/04:30am 8.3 4.5 5.9 85 1.1 NNW 15 17 8 9 1030.0 1030.0 0.0
24/04:00am 8.7 5.7 6.1 84 1.2 NNW 11 13 6 7 1029.8 1029.8 0.0
24/03:30am 8.7 5.0 6.3 85 1.1 NW 15 19 8 10 1029.7 1029.7 0.0
24/03:00am 8.8 5.5 6.4 85 1.1 NW 13 15 7 8 1029.7 1029.7 0.0
24/02:30am 9.0 5.4 6.6 85 1.1 NW 15 19 8 10 1029.7 1029.7 0.0
24/02:00am 9.4 5.4 6.8 84 1.2 NNW 17 19 9 10 1029.7 1029.7 0.0
24/01:30am 10.3 7.1 6.9 79 1.6 NNW 13 15 7 8 1029.7 1029.7 0.0
24/01:00am 10.7 7.5 6.9 77 1.8 NNW 13 15 7 8 1029.7 1029.7 0.0
24/12:30am 10.9 7.4 7.1 77 1.8 NW 15 17 8 9 1029.7 1029.7 0.0
24/12:00am 11.0 7.9 7.2 77 1.8 NNW 13 15 7 8 1029.7 1029.7 0.0
 
Date/Time
EST
Temp
°C
App
Temp
°C
Dew
Point
Rel
Hum
%
Delta-T
°C
Wind Press
QNH
hPa
Press
MSL
hPa
Rain
since 9 am
mm
Dir
 
Spd
km/h
Gust
km/h
Spd
kts
Gust
kts
23/11:30pm 11.4 8.3 7.4 76 1.9 NNW 13 15 7 8 1029.7 1029.7 0.0
23/11:00pm 11.8 8.4 7.6 75 2.0 NW 15 19 8 10 1029.7 1029.7 0.0
23/10:30pm 12.9 9.6 8.2 73 2.3 W 15 17 8 9 1029.6 1029.6 0.0
23/10:00pm 12.5 9.0 8.7 77 1.9 SW 17 19 9 10 1029.6 1029.6 0.0
23/09:30pm 12.9 9.5 9.3 79 1.8 SW 17 48 9 26 1029.7 1029.7 0.0
23/09:00pm 13.2 9.6 9.7 79 1.8 SW 19 20 10 11 1029.7 1029.7 0.0
23/08:30pm 13.4 10.4 9.2 76 2.1 SW 15 19 8 10 1029.7 1029.7 0.0
23/08:00pm 13.9 10.9 9.1 73 2.4 SW 15 19 8 10 1029.6 1029.6 0.0

Other Formats:

Comma delimited format used in spreadsheet applications
http://www.bom.gov.au/fwo/IDN60801/IDN60801.94767.axf

JavaScript Object Notation format (JSON) in row-major order
http://www.bom.gov.au/fwo/IDN60801/IDN60801.94767.json